sensor_id;sensor_type;location;lat;lon;timestamp;pressure;altitude;pressure_sealevel;temperature;humidity
67931;BME280;63902;52.000;5.954;2023-04-21T00:00:09;101184.09;;;6.88;82.06
67931;BME280;63902;52.000;5.954;2023-04-21T00:01:09;101199.66;;;7.02;82.24
67931;BME280;63902;52.000;5.954;2023-04-21T00:02:10;101199.66;;;7.02;81.89
67931;BME280;63902;52.000;5.954;2023-04-21T00:03:10;101203.16;;;7.02;81.97
67931;BME280;63902;52.000;5.954;2023-04-21T00:04:11;101182.97;;;7.00;81.89
67931;BME280;63902;52.000;5.954;2023-04-21T00:05:11;101197.00;;;7.03;81.80
67931;BME280;63902;52.000;5.954;2023-04-21T00:06:12;101191.66;;;7.05;81.84
67931;BME280;63902;52.000;5.954;2023-04-21T00:07:12;101180.25;;;7.04;82.05
67931;BME280;63902;52.000;5.954;2023-04-21T00:08:13;101185.59;;;7.01;82.06
67931;BME280;63902;52.000;5.954;2023-04-21T00:09:14;101193.47;;;7.03;82.07
67931;BME280;63902;52.000;5.954;2023-04-21T00:10:14;101184.66;;;7.04;82.02
67931;BME280;63902;52.000;5.954;2023-04-21T00:11:15;101193.44;;;7.06;82.20
67931;BME280;63902;52.000;5.954;2023-04-21T00:12:16;101171.56;;;7.01;82.25
67931;BME280;63902;52.000;5.954;2023-04-21T00:13:17;101179.41;;;7.04;82.40
67931;BME280;63902;52.000;5.954;2023-04-21T00:14:17;101178.59;;;7.00;83.16
67931;BME280;63902;52.000;5.954;2023-04-21T00:15:18;101183.81;;;7.03;83.01
67931;BME280;63902;52.000;5.954;2023-04-21T00:16:18;101181.19;;;7.02;82.98
67931;BME280;63902;52.000;5.954;2023-04-21T00:17:19;101182.91;;;7.03;82.74
67931;BME280;63902;52.000;5.954;2023-04-21T00:18:19;101176.78;;;7.02;82.67
67931;BME280;63902;52.000;5.954;2023-04-21T00:19:20;101177.69;;;7.01;83.50
67931;BME280;63902;52.000;5.954;2023-04-21T00:20:20;101174.19;;;7.01;83.88
67931;BME280;63902;52.000;5.954;2023-04-21T00:21:21;101159.31;;;6.97;83.60
67931;BME280;63902;52.000;5.954;2023-04-21T00:22:21;101168.06;;;6.99;83.47
67931;BME280;63902;52.000;5.954;2023-04-21T00:23:22;101175.97;;;6.99;84.03
67931;BME280;63902;52.000;5.954;2023-04-21T00:24:22;101172.50;;;6.97;83.78
67931;BME280;63902;52.000;5.954;2023-04-21T00:25:24;101169.84;;;6.97;83.89
67931;BME280;63902;52.000;5.954;2023-04-21T00:26:24;101163.72;;;6.96;83.87
67931;BME280;63902;52.000;5.954;2023-04-21T00:27:26;101162.88;;;6.94;83.84
67931;BME280;63902;52.000;5.954;2023-04-21T00:28:27;101163.81;;;6.91;83.93
67931;BME280;63902;52.000;5.954;2023-04-21T00:29:27;101163.75;;;6.94;84.05
67931;BME280;63902;52.000;5.954;2023-04-21T00:30:28;101164.59;;;6.97;83.95
67931;BME280;63902;52.000;5.954;2023-04-21T00:31:28;101161.09;;;6.96;84.12
67931;BME280;63902;52.000;5.954;2023-04-21T00:32:29;101161.94;;;6.97;84.13
67931;BME280;63902;52.000;5.954;2023-04-21T00:33:29;101152.25;;;6.97;84.20
67931;BME280;63902;52.000;5.954;2023-04-21T00:34:29;101151.41;;;6.97;84.16
67931;BME280;63902;52.000;5.954;2023-04-21T00:35:30;101154.94;;;6.95;84.13
67931;BME280;63902;52.000;5.954;2023-04-21T00:36:30;101147.03;;;6.95;84.30
67931;BME280;63902;52.000;5.954;2023-04-21T00:37:31;101152.31;;;6.95;84.15
67931;BME280;63902;52.000;5.954;2023-04-21T00:38:31;101149.69;;;6.95;84.74
67931;BME280;63902;52.000;5.954;2023-04-21T00:39:32;101151.41;;;6.97;84.48
67931;BME280;63902;52.000;5.954;2023-04-21T00:40:32;101142.66;;;6.94;84.79
67931;BME280;63902;52.000;5.954;2023-04-21T00:41:33;101148.81;;;6.95;85.06
67931;BME280;63902;52.000;5.954;2023-04-21T00:42:35;101146.19;;;6.95;84.96
67931;BME280;63902;52.000;5.954;2023-04-21T00:43:36;101140.91;;;6.93;85.26
67931;BME280;63902;52.000;5.954;2023-04-21T00:44:36;101139.25;;;6.89;85.59
67931;BME280;63902;52.000;5.954;2023-04-21T00:45:37;101144.53;;;6.89;85.27
67931;BME280;63902;52.000;5.954;2023-04-21T00:46:37;101141.84;;;6.92;88.45
67931;BME280;63902;52.000;5.954;2023-04-21T00:47:38;101140.13;;;6.90;87.26
67931;BME280;63902;52.000;5.954;2023-04-21T00:48:38;101139.25;;;6.89;87.49
67931;BME280;63902;52.000;5.954;2023-04-21T00:49:38;101141.00;;;6.89;86.70
67931;BME280;63902;52.000;5.954;2023-04-21T00:50:39;101143.69;;;6.87;86.25
67931;BME280;63902;52.000;5.954;2023-04-21T00:51:40;101134.06;;;6.85;86.94
67931;BME280;63902;52.000;5.954;2023-04-21T00:52:41;101141.91;;;6.89;86.59
67931;BME280;63902;52.000;5.954;2023-04-21T00:53:42;101132.22;;;6.88;87.45
67931;BME280;63902;52.000;5.954;2023-04-21T00:54:43;101124.44;;;6.84;87.73
67931;BME280;63902;52.000;5.954;2023-04-21T00:55:44;101134.06;;;6.86;87.05
67931;BME280;63902;52.000;5.954;2023-04-21T00:56:45;101133.22;;;6.84;87.11
67931;BME280;63902;52.000;5.954;2023-04-21T00:57:47;101129.66;;;6.87;86.93
67931;BME280;63902;52.000;5.954;2023-04-21T00:58:50;101126.16;;;6.86;86.87
67931;BME280;63902;52.000;5.954;2023-04-21T00:59:50;101115.63;;;6.83;86.96
67931;BME280;63902;52.000;5.954;2023-04-21T01:00:51;101123.50;;;6.86;86.78
67931;BME280;63902;52.000;5.954;2023-04-21T01:01:51;101109.53;;;6.81;86.72
67931;BME280;63902;52.000;5.954;2023-04-21T01:02:52;101112.97;;;6.86;87.00
67931;BME280;63902;52.000;5.954;2023-04-21T01:03:53;101114.69;;;6.86;87.62
67931;BME280;63902;52.000;5.954;2023-04-21T01:04:53;101107.72;;;6.83;88.50
67931;BME280;63902;52.000;5.954;2023-04-21T01:05:54;101115.63;;;6.85;88.58
67931;BME280;63902;52.000;5.954;2023-04-21T01:06:54;101112.97;;;6.85;87.60
67931;BME280;63902;52.000;5.954;2023-04-21T01:07:55;101116.47;;;6.85;87.30
67931;BME280;63902;52.000;5.954;2023-04-21T01:08:55;101113.81;;;6.87;87.23
67931;BME280;63902;52.000;5.954;2023-04-21T01:09:56;101110.34;;;6.85;87.10
67931;BME280;63902;52.000;5.954;2023-04-21T01:10:56;101119.03;;;6.90;87.22
67931;BME280;63902;52.000;5.954;2023-04-21T01:12:00;101085.91;;;6.77;87.00
67931;BME280;63902;52.000;5.954;2023-04-21T01:13:02;101105.84;;;6.90;86.79
67931;BME280;63902;52.000;5.954;2023-04-21T01:14:03;101098.88;;;6.87;87.18
67931;BME280;63902;52.000;5.954;2023-04-21T01:15:04;101073.69;;;6.72;87.83
67931;BME280;63902;52.000;5.954;2023-04-21T01:16:06;101100.53;;;6.91;88.02
67931;BME280;63902;52.000;5.954;2023-04-21T01:17:07;101099.66;;;6.91;87.72
67931;BME280;63902;52.000;5.954;2023-04-21T01:18:08;101099.72;;;6.88;88.01
67931;BME280;63902;52.000;5.954;2023-04-21T01:19:08;101098.78;;;6.90;88.08
67931;BME280;63902;52.000;5.954;2023-04-21T01:20:10;101089.19;;;6.88;88.17
67931;BME280;63902;52.000;5.954;2023-04-21T01:21:12;101102.34;;;6.89;87.77
67931;BME280;63902;52.000;5.954;2023-04-21T01:22:14;101094.44;;;6.89;88.04
67931;BME280;63902;52.000;5.954;2023-04-21T01:23:15;101082.31;;;6.81;88.44
67931;BME280;63902;52.000;5.954;2023-04-21T01:24:15;101083.97;;;6.85;88.67
67931;BME280;63902;52.000;5.954;2023-04-21T01:25:16;101086.53;;;6.88;88.34
67931;BME280;63902;52.000;5.954;2023-04-21T01:26:17;101089.16;;;6.89;88.42
67931;BME280;63902;52.000;5.954;2023-04-21T01:27:19;101089.16;;;6.89;88.62
67931;BME280;63902;52.000;5.954;2023-04-21T01:28:21;101084.78;;;6.88;88.48
67931;BME280;63902;52.000;5.954;2023-04-21T01:29:21;101090.91;;;6.89;88.48
67931;BME280;63902;52.000;5.954;2023-04-21T01:30:22;101085.69;;;6.86;88.27
67931;BME280;63902;52.000;5.954;2023-04-21T01:31:22;101089.97;;;6.91;88.07
67931;BME280;63902;52.000;5.954;2023-04-21T01:32:24;101089.09;;;6.92;87.97
67931;BME280;63902;52.000;5.954;2023-04-21T01:33:25;101095.25;;;6.91;88.20
67931;BME280;63902;52.000;5.954;2023-04-21T01:34:26;101096.09;;;6.93;88.20
67931;BME280;63902;52.000;5.954;2023-04-21T01:35:26;101093.44;;;6.93;88.12
67931;BME280;63902;52.000;5.954;2023-04-21T01:36:27;101075.22;;;6.84;88.12
67931;BME280;63902;52.000;5.954;2023-04-21T01:37:31;101093.44;;;6.93;87.97
67931;BME280;63902;52.000;5.954;2023-04-21T01:38:31;101095.19;;;6.94;87.84
67931;BME280;63902;52.000;5.954;2023-04-21T01:39:32;101096.06;;;6.95;88.46
67931;BME280;63902;52.000;5.954;2023-04-21T01:40:32;101097.81;;;6.94;88.23
67931;BME280;63902;52.000;5.954;2023-04-21T01:41:33;101109.25;;;6.95;88.30
67931;BME280;63902;52.000;5.954;2023-04-21T01:42:35;101100.44;;;6.96;88.07
67931;BME280;63902;52.000;5.954;2023-04-21T01:43:37;101104.78;;;6.97;87.80
67931;BME280;63902;52.000;5.954;2023-04-21T01:44:37;101100.44;;;6.94;88.10
67931;BME280;63902;52.000;5.954;2023-04-21T01:45:38;101099.50;;;6.99;87.94
67931;BME280;63902;52.000;5.954;2023-04-21T01:46:39;101098.59;;;7.00;88.09
67931;BME280;63902;52.000;5.954;2023-04-21T01:47:39;101096.00;;;6.98;88.30
67931;BME280;63902;52.000;5.954;2023-04-21T01:48:40;101101.28;;;6.98;88.17
67931;BME280;63902;52.000;5.954;2023-04-21T01:49:40;101106.56;;;6.98;88.25
67931;BME280;63902;52.000;5.954;2023-04-21T01:50:41;101102.13;;;6.99;88.59
67931;BME280;63902;52.000;5.954;2023-04-21T01:51:41;101099.50;;;6.99;88.50
67931;BME280;63902;52.000;5.954;2023-04-21T01:52:43;101105.63;;;7.01;88.47
67931;BME280;63902;52.000;5.954;2023-04-21T01:53:43;101114.41;;;7.00;88.48
67931;BME280;63902;52.000;5.954;2023-04-21T01:54:44;101103.88;;;7.00;88.62
67931;BME280;63902;52.000;5.954;2023-04-21T01:55:44;101109.19;;;6.98;88.82
67931;BME280;63902;52.000;5.954;2023-04-21T01:56:45;101109.13;;;7.00;88.76
67931;BME280;63902;52.000;5.954;2023-04-21T01:57:45;101099.47;;;7.00;88.81
67931;BME280;63902;52.000;5.954;2023-04-21T01:58:46;101099.47;;;7.00;89.29
67931;BME280;63902;52.000;5.954;2023-04-21T01:59:46;101097.72;;;6.99;89.17
67931;BME280;63902;52.000;5.954;2023-04-21T02:00:47;101095.09;;;6.99;89.01
67931;BME280;63902;52.000;5.954;2023-04-21T02:01:47;101104.75;;;7.00;89.16
67931;BME280;63902;52.000;5.954;2023-04-21T02:02:48;101096.84;;;7.00;88.96
67931;BME280;63902;52.000;5.954;2023-04-21T02:03:48;101096.78;;;7.02;88.98
67931;BME280;63902;52.000;5.954;2023-04-21T02:04:49;101091.50;;;7.03;89.03
67931;BME280;63902;52.000;5.954;2023-04-21T02:05:49;101095.00;;;7.04;88.92
67931;BME280;63902;52.000;5.954;2023-04-21T02:06:50;101091.44;;;7.05;88.73
67931;BME280;63902;52.000;5.954;2023-04-21T02:07:52;101080.97;;;7.02;89.24
67931;BME280;63902;52.000;5.954;2023-04-21T02:08:52;101090.66;;;7.01;89.14
67931;BME280;63902;52.000;5.954;2023-04-21T02:09:52;101082.75;;;7.01;88.92
67931;BME280;63902;52.000;5.954;2023-04-21T02:10:53;101090.59;;;7.04;89.17
67931;BME280;63902;52.000;5.954;2023-04-21T02:11:54;101074.84;;;7.00;89.18
67931;BME280;63902;52.000;5.954;2023-04-21T02:12:55;101093.22;;;7.06;89.31
67931;BME280;63902;52.000;5.954;2023-04-21T02:13:55;101095.84;;;7.04;89.07
67931;BME280;63902;52.000;5.954;2023-04-21T02:14:56;101092.31;;;7.05;89.56
67931;BME280;63902;52.000;5.954;2023-04-21T02:15:56;101087.94;;;7.06;89.51
67931;BME280;63902;52.000;5.954;2023-04-21T02:16:57;101079.19;;;7.04;89.24
67931;BME280;63902;52.000;5.954;2023-04-21T02:17:57;101088.78;;;7.06;89.69
67931;BME280;63902;52.000;5.954;2023-04-21T02:18:58;101093.22;;;7.06;89.67
67931;BME280;63902;52.000;5.954;2023-04-21T02:19:58;101100.19;;;7.07;89.60
67931;BME280;63902;52.000;5.954;2023-04-21T02:20:59;101087.00;;;7.07;89.80
67931;BME280;63902;52.000;5.954;2023-04-21T02:21:59;101083.50;;;7.06;89.84
67931;BME280;63902;52.000;5.954;2023-04-21T02:23:01;101084.41;;;7.05;89.60
67931;BME280;63902;52.000;5.954;2023-04-21T02:24:01;101087.94;;;7.04;89.76
67931;BME280;63902;52.000;5.954;2023-04-21T02:25:02;101087.94;;;7.06;89.70
67931;BME280;63902;52.000;5.954;2023-04-21T02:26:03;101087.00;;;7.07;89.94
67931;BME280;63902;52.000;5.954;2023-04-21T02:27:03;101083.50;;;7.06;89.83
67931;BME280;63902;52.000;5.954;2023-04-21T02:28:04;101080.06;;;7.03;89.78
67931;BME280;63902;52.000;5.954;2023-04-21T02:29:04;101094.84;;;7.10;90.08
67931;BME280;63902;52.000;5.954;2023-04-21T02:30:06;101087.88;;;7.07;90.19
67931;BME280;63902;52.000;5.954;2023-04-21T02:31:07;101087.09;;;7.04;89.91
67931;BME280;63902;52.000;5.954;2023-04-21T02:32:07;101088.75;;;7.08;90.04
67931;BME280;63902;52.000;5.954;2023-04-21T02:33:08;101089.59;;;7.10;90.31
67931;BME280;63902;52.000;5.954;2023-04-21T02:34:08;101082.59;;;7.07;90.27
67931;BME280;63902;52.000;5.954;2023-04-21T02:35:09;101079.06;;;7.08;90.26
67931;BME280;63902;52.000;5.954;2023-04-21T02:36:09;101080.81;;;7.08;90.20
67931;BME280;63902;52.000;5.954;2023-04-21T02:37:10;101075.56;;;7.08;90.44
67931;BME280;63902;52.000;5.954;2023-04-21T02:38:12;101066.81;;;7.06;90.37
67931;BME280;63902;52.000;5.954;2023-04-21T02:39:12;101069.41;;;7.07;90.75
67931;BME280;63902;52.000;5.954;2023-04-21T02:40:12;101073.84;;;7.05;90.97
67931;BME280;63902;52.000;5.954;2023-04-21T02:41:13;101056.38;;;7.01;91.17
67931;BME280;63902;52.000;5.954;2023-04-21T02:42:14;101072.09;;;7.06;91.61
67931;BME280;63902;52.000;5.954;2023-04-21T02:43:14;101072.13;;;7.04;91.57
67931;BME280;63902;52.000;5.954;2023-04-21T02:44:15;101073.91;;;7.04;91.24
67931;BME280;63902;52.000;5.954;2023-04-21T02:45:15;101069.50;;;7.04;91.53
67931;BME280;63902;52.000;5.954;2023-04-21T02:46:15;101069.56;;;7.01;91.47
67931;BME280;63902;52.000;5.954;2023-04-21T02:47:16;101068.63;;;7.04;91.35
67931;BME280;63902;52.000;5.954;2023-04-21T02:48:16;101070.41;;;7.03;91.87
67931;BME280;63902;52.000;5.954;2023-04-21T02:49:17;101060.84;;;6.98;92.13
67931;BME280;63902;52.000;5.954;2023-04-21T02:50:17;101073.97;;;7.01;92.02
67931;BME280;63902;52.000;5.954;2023-04-21T02:51:18;101061.81;;;6.93;92.45
67931;BME280;63902;52.000;5.954;2023-04-21T02:52:18;101067.78;;;7.02;92.03
67931;BME280;63902;52.000;5.954;2023-04-21T02:53:20;101080.09;;;7.01;91.87
67931;BME280;63902;52.000;5.954;2023-04-21T02:54:21;101075.75;;;7.00;92.27
67931;BME280;63902;52.000;5.954;2023-04-21T02:55:21;101078.38;;;7.00;92.07
67931;BME280;63902;52.000;5.954;2023-04-21T02:56:22;101079.25;;;7.01;92.23
67931;BME280;63902;52.000;5.954;2023-04-21T02:57:23;101070.50;;;6.99;92.84
67931;BME280;63902;52.000;5.954;2023-04-21T02:58:23;101066.16;;;6.96;92.46
67931;BME280;63902;52.000;5.954;2023-04-21T02:59:24;101071.34;;;7.01;92.43
67931;BME280;63902;52.000;5.954;2023-04-21T03:00:24;101068.69;;;7.01;92.28
67931;BME280;63902;52.000;5.954;2023-04-21T03:01:25;101061.66;;;7.00;92.22
67931;BME280;63902;52.000;5.954;2023-04-21T03:02:25;101059.88;;;7.02;92.85
67931;BME280;63902;52.000;5.954;2023-04-21T03:03:26;101055.47;;;7.02;92.19
67931;BME280;63902;52.000;5.954;2023-04-21T03:04:26;101059.88;;;7.02;92.35
67931;BME280;63902;52.000;5.954;2023-04-21T03:05:26;101062.50;;;7.03;92.14
67931;BME280;63902;52.000;5.954;2023-04-21T03:06:27;101066.84;;;7.04;91.89
67931;BME280;63902;52.000;5.954;2023-04-21T03:07:27;101066.88;;;7.03;91.86
67931;BME280;63902;52.000;5.954;2023-04-21T03:08:29;101058.22;;;6.98;92.04
67931;BME280;63902;52.000;5.954;2023-04-21T03:09:30;101057.31;;;6.99;91.77
67931;BME280;63902;52.000;5.954;2023-04-21T03:10:30;101060.72;;;7.04;92.50
67931;BME280;63902;52.000;5.954;2023-04-21T03:11:31;101065.06;;;7.05;92.07
67931;BME280;63902;52.000;5.954;2023-04-21T03:12:31;101065.06;;;7.05;92.07
67931;BME280;63902;52.000;5.954;2023-04-21T03:13:32;101050.31;;;6.98;92.24
67931;BME280;63902;52.000;5.954;2023-04-21T03:14:32;101059.78;;;7.05;92.56
67931;BME280;63902;52.000;5.954;2023-04-21T03:15:33;101065.06;;;7.05;92.21
67931;BME280;63902;52.000;5.954;2023-04-21T03:16:33;101057.22;;;7.02;92.28
67931;BME280;63902;52.000;5.954;2023-04-21T03:17:34;101066.81;;;7.06;92.69
67931;BME280;63902;52.000;5.954;2023-04-21T03:18:34;101061.56;;;7.06;93.17
67931;BME280;63902;52.000;5.954;2023-04-21T03:19:35;101063.28;;;7.07;93.00
67931;BME280;63902;52.000;5.954;2023-04-21T03:20:35;101061.56;;;7.06;92.52
67931;BME280;63902;52.000;5.954;2023-04-21T03:21:36;101061.56;;;7.06;92.38
67931;BME280;63902;52.000;5.954;2023-04-21T03:22:37;101056.28;;;7.06;92.73
67931;BME280;63902;52.000;5.954;2023-04-21T03:23:39;101058.00;;;7.07;92.73
67931;BME280;63902;52.000;5.954;2023-04-21T03:24:39;101058.06;;;7.04;92.59
67931;BME280;63902;52.000;5.954;2023-04-21T03:25:40;101051.94;;;7.03;92.40
67931;BME280;63902;52.000;5.954;2023-04-21T03:26:40;101059.78;;;7.06;92.48
67931;BME280;63902;52.000;5.954;2023-04-21T03:27:41;101063.28;;;7.07;92.41
67931;BME280;63902;52.000;5.954;2023-04-21T03:28:41;101061.50;;;7.07;92.59
67931;BME280;63902;52.000;5.954;2023-04-21T03:29:42;101057.16;;;7.05;93.50
67931;BME280;63902;52.000;5.954;2023-04-21T03:30:42;101064.94;;;7.11;93.06
67931;BME280;63902;52.000;5.954;2023-04-21T03:31:42;101060.56;;;7.10;92.95
67931;BME280;63902;52.000;5.954;2023-04-21T03:32:43;101055.28;;;7.10;92.56
67931;BME280;63902;52.000;5.954;2023-04-21T03:33:43;101043.91;;;7.08;92.52
67931;BME280;63902;52.000;5.954;2023-04-21T03:34:44;101051.78;;;7.09;92.82
67931;BME280;63902;52.000;5.954;2023-04-21T03:35:44;101043.81;;;7.11;92.85
67931;BME280;63902;52.000;5.954;2023-04-21T03:36:45;101032.41;;;7.10;92.87
67931;BME280;63902;52.000;5.954;2023-04-21T03:37:45;101036.81;;;7.10;92.95
67931;BME280;63902;52.000;5.954;2023-04-21T03:38:47;101032.53;;;7.06;93.20
67931;BME280;63902;52.000;5.954;2023-04-21T03:39:48;101038.63;;;7.08;93.28
67931;BME280;63902;52.000;5.954;2023-04-21T03:40:49;101042.97;;;7.10;94.65
67931;BME280;63902;52.000;5.954;2023-04-21T03:41:49;101037.75;;;7.09;93.84
67931;BME280;63902;52.000;5.954;2023-04-21T03:42:50;101037.00;;;7.02;93.60
67931;BME280;63902;52.000;5.954;2023-04-21T03:43:50;101042.09;;;7.10;93.50
67931;BME280;63902;52.000;5.954;2023-04-21T03:44:51;101046.53;;;7.08;93.43
67931;BME280;63902;52.000;5.954;2023-04-21T03:45:51;101041.47;;;7.00;93.19
67931;BME280;63902;52.000;5.954;2023-04-21T03:46:51;101055.28;;;7.10;93.27
67931;BME280;63902;52.000;5.954;2023-04-21T03:47:53;101058.78;;;7.10;93.36
67931;BME280;63902;52.000;5.954;2023-04-21T03:48:53;101046.66;;;7.03;93.35
67931;BME280;63902;52.000;5.954;2023-04-21T03:49:54;101051.81;;;7.08;93.33
67931;BME280;63902;52.000;5.954;2023-04-21T03:50:54;101057.94;;;7.10;93.14
67931;BME280;63902;52.000;5.954;2023-04-21T03:51:55;101047.53;;;7.04;93.32
67931;BME280;63902;52.000;5.954;2023-04-21T03:52:55;101053.50;;;7.10;93.24
67931;BME280;63902;52.000;5.954;2023-04-21T03:53:57;101057.94;;;7.10;93.32
67931;BME280;63902;52.000;5.954;2023-04-21T03:54:58;101057.94;;;7.10;93.38
67931;BME280;63902;52.000;5.954;2023-04-21T03:55:58;101043.13;;;7.04;93.57
67931;BME280;63902;52.000;5.954;2023-04-21T03:56:58;101056.16;;;7.10;94.48
67931;BME280;63902;52.000;5.954;2023-04-21T03:57:59;101057.94;;;7.10;94.36
67931;BME280;63902;52.000;5.954;2023-04-21T03:58:59;101057.06;;;7.09;94.74
67931;BME280;63902;52.000;5.954;2023-04-21T04:00:00;101055.28;;;7.10;94.87
67931;BME280;63902;52.000;5.954;2023-04-21T04:01:00;101042.25;;;7.04;94.38
67931;BME280;63902;52.000;5.954;2023-04-21T04:02:01;101014.50;;;6.86;93.72
67931;BME280;63902;52.000;5.954;2023-04-21T04:03:01;101054.38;;;7.11;93.75
67931;BME280;63902;52.000;5.954;2023-04-21T04:04:02;101052.66;;;7.10;93.79
67931;BME280;63902;52.000;5.954;2023-04-21T04:05:03;101043.81;;;7.11;93.70
67931;BME280;63902;52.000;5.954;2023-04-21T04:06:04;101035.06;;;7.10;93.67
67931;BME280;63902;52.000;5.954;2023-04-21T04:07:04;101030.63;;;7.11;93.61
67931;BME280;63902;52.000;5.954;2023-04-21T04:08:04;101038.56;;;7.11;93.61
67931;BME280;63902;52.000;5.954;2023-04-21T04:09:06;101036.81;;;7.11;93.51
67931;BME280;63902;52.000;5.954;2023-04-21T04:10:07;101042.03;;;7.13;93.61
67931;BME280;63902;52.000;5.954;2023-04-21T04:11:07;101040.31;;;7.12;95.33
67931;BME280;63902;52.000;5.954;2023-04-21T04:12:08;101042.94;;;7.12;94.69
67931;BME280;63902;52.000;5.954;2023-04-21T04:13:08;101036.75;;;7.13;94.43
67931;BME280;63902;52.000;5.954;2023-04-21T04:14:09;101029.75;;;7.12;94.36
67931;BME280;63902;52.000;5.954;2023-04-21T04:15:09;101035.91;;;7.12;94.10
67931;BME280;63902;52.000;5.954;2023-04-21T04:16:10;101034.19;;;7.10;94.10
67931;BME280;63902;52.000;5.954;2023-04-21T04:17:10;101048.22;;;7.12;93.89
67931;BME280;63902;52.000;5.954;2023-04-21T04:18:11;101038.47;;;7.14;94.38
67931;BME280;63902;52.000;5.954;2023-04-21T04:19:11;101043.75;;;7.14;94.50
67931;BME280;63902;52.000;5.954;2023-04-21T04:20:12;101043.75;;;7.14;94.41
67931;BME280;63902;52.000;5.954;2023-04-21T04:21:12;101053.38;;;7.16;95.62
67931;BME280;63902;52.000;5.954;2023-04-21T04:22:13;101046.38;;;7.14;94.89
67931;BME280;63902;52.000;5.954;2023-04-21T04:23:13;101039.47;;;7.10;94.39
67931;BME280;63902;52.000;5.954;2023-04-21T04:24:15;101042.94;;;7.12;94.64
67931;BME280;63902;52.000;5.954;2023-04-21T04:25:15;101039.44;;;7.11;94.79
67931;BME280;63902;52.000;5.954;2023-04-21T04:26:16;101042.03;;;7.13;94.26
67931;BME280;63902;52.000;5.954;2023-04-21T04:27:16;101043.72;;;7.17;94.33
67931;BME280;63902;52.000;5.954;2023-04-21T04:28:17;101032.25;;;7.16;94.63
67931;BME280;63902;52.000;5.954;2023-04-21T04:29:17;101024.47;;;7.12;94.75
67931;BME280;63902;52.000;5.954;2023-04-21T04:30:18;101026.88;;;7.21;97.98
67931;BME280;63902;52.000;5.954;2023-04-21T04:31:18;100993.88;;;7.05;96.70
67931;BME280;63902;52.000;5.954;2023-04-21T04:32:19;101024.25;;;7.21;96.21
67931;BME280;63902;52.000;5.954;2023-04-21T04:33:19;101028.63;;;7.22;95.86
67931;BME280;63902;52.000;5.954;2023-04-21T04:34:20;101042.72;;;7.21;95.78
67931;BME280;63902;52.000;5.954;2023-04-21T04:35:20;101038.31;;;7.22;95.28
67931;BME280;63902;52.000;5.954;2023-04-21T04:36:21;101023.34;;;7.22;95.02
67931;BME280;63902;52.000;5.954;2023-04-21T04:37:21;101026.81;;;7.24;95.98
67931;BME280;63902;52.000;5.954;2023-04-21T04:38:22;101029.44;;;7.24;95.33
67931;BME280;63902;52.000;5.954;2023-04-21T04:39:24;101033.81;;;7.25;95.76
67931;BME280;63902;52.000;5.954;2023-04-21T04:40:24;101032.94;;;7.26;95.63
67931;BME280;63902;52.000;5.954;2023-04-21T04:41:25;101034.72;;;7.24;94.98
67931;BME280;63902;52.000;5.954;2023-04-21T04:42:25;101027.66;;;7.26;95.43
67931;BME280;63902;52.000;5.954;2023-04-21T04:43:26;101029.38;;;7.27;95.03
67931;BME280;63902;52.000;5.954;2023-04-21T04:44:26;101008.66;;;7.12;95.36
67931;BME280;63902;52.000;5.954;2023-04-21T04:45:27;101026.72;;;7.29;95.82
67931;BME280;63902;52.000;5.954;2023-04-21T04:46:27;101027.69;;;7.25;95.80
67931;BME280;63902;52.000;5.954;2023-04-21T04:47:28;101038.16;;;7.28;95.42
67931;BME280;63902;52.000;5.954;2023-04-21T04:48:28;101034.56;;;7.30;95.40
67931;BME280;63902;52.000;5.954;2023-04-21T04:49:29;101028.44;;;7.30;95.92
67931;BME280;63902;52.000;5.954;2023-04-21T04:50:29;101031.06;;;7.31;95.69
67931;BME280;63902;52.000;5.954;2023-04-21T04:51:30;101031.06;;;7.31;96.22
67931;BME280;63902;52.000;5.954;2023-04-21T04:52:30;101011.81;;;7.26;96.25
67931;BME280;63902;52.000;5.954;2023-04-21T04:53:31;101030.13;;;7.32;95.77
67931;BME280;63902;52.000;5.954;2023-04-21T04:54:33;101033.63;;;7.34;95.93
67931;BME280;63902;52.000;5.954;2023-04-21T04:55:33;101034.56;;;7.32;95.69
67931;BME280;63902;52.000;5.954;2023-04-21T04:56:33;101035.44;;;7.31;95.71
67931;BME280;63902;52.000;5.954;2023-04-21T04:57:34;101024.06;;;7.29;96.08
67931;BME280;63902;52.000;5.954;2023-04-21T04:58:34;101033.63;;;7.34;96.12
67931;BME280;63902;52.000;5.954;2023-04-21T04:59:35;101026.63;;;7.32;95.85
67931;BME280;63902;52.000;5.954;2023-04-21T05:00:35;101040.63;;;7.35;95.64
67931;BME280;63902;52.000;5.954;2023-04-21T05:01:36;101028.34;;;7.34;95.59
67931;BME280;63902;52.000;5.954;2023-04-21T05:02:36;101034.41;;;7.36;98.76
67931;BME280;63902;52.000;5.954;2023-04-21T05:03:37;101044.09;;;7.37;97.50
67931;BME280;63902;52.000;5.954;2023-04-21T05:04:37;101042.31;;;7.38;97.95
67931;BME280;63902;52.000;5.954;2023-04-21T05:05:38;101034.41;;;7.38;98.03
67931;BME280;63902;52.000;5.954;2023-04-21T05:06:38;101043.22;;;7.37;97.02
67931;BME280;63902;52.000;5.954;2023-04-21T05:07:39;101046.72;;;7.37;97.24
67931;BME280;63902;52.000;5.954;2023-04-21T05:08:39;101042.34;;;7.36;97.47
67931;BME280;63902;52.000;5.954;2023-04-21T05:09:41;101046.72;;;7.37;100.00
67931;BME280;63902;52.000;5.954;2023-04-21T05:10:41;101031.13;;;7.28;99.73
67931;BME280;63902;52.000;5.954;2023-04-21T05:11:42;101039.69;;;7.36;98.11
67931;BME280;63902;52.000;5.954;2023-04-21T05:12:42;101030.13;;;7.34;97.51
67931;BME280;63902;52.000;5.954;2023-04-21T05:13:43;101030.97;;;7.34;97.12
67931;BME280;63902;52.000;5.954;2023-04-21T05:14:43;101030.06;;;7.35;97.66
67931;BME280;63902;52.000;5.954;2023-04-21T05:15:44;101027.41;;;7.35;98.76
67931;BME280;63902;52.000;5.954;2023-04-21T05:16:44;101024.88;;;7.31;97.66
67931;BME280;63902;52.000;5.954;2023-04-21T05:17:45;101019.59;;;7.32;97.63
67931;BME280;63902;52.000;5.954;2023-04-21T05:18:45;101030.97;;;7.34;97.05
67931;BME280;63902;52.000;5.954;2023-04-21T05:19:46;101034.50;;;7.33;97.10
67931;BME280;63902;52.000;5.954;2023-04-21T05:20:46;101041.53;;;7.34;96.81